sensor_id;sensor_type;location;lat;lon;timestamp;temperature;humidity
4677;DHT22;2352;48.180;11.478;2023-04-01T00:00:50;9.70;99.10
4677;DHT22;2352;48.180;11.478;2023-04-01T00:03:53;9.80;99.30
4677;DHT22;2352;48.180;11.478;2023-04-01T00:06:59;9.70;99.20
4677;DHT22;2352;48.180;11.478;2023-04-01T00:10:03;9.80;99.20
4677;DHT22;2352;48.180;11.478;2023-04-01T00:13:06;9.70;99.30
4677;DHT22;2352;48.180;11.478;2023-04-01T00:16:09;9.70;99.40
4677;DHT22;2352;48.180;11.478;2023-04-01T00:19:23;9.70;99.30
4677;DHT22;2352;48.180;11.478;2023-04-01T00:22:27;9.70;99.40
4677;DHT22;2352;48.180;11.478;2023-04-01T00:25:30;9.70;99.10
4677;DHT22;2352;48.180;11.478;2023-04-01T00:28:34;9.60;99.30
4677;DHT22;2352;48.180;11.478;2023-04-01T00:31:38;9.70;99.40
4677;DHT22;2352;48.180;11.478;2023-04-01T00:34:41;9.60;99.50
4677;DHT22;2352;48.180;11.478;2023-04-01T00:37:45;9.60;99.40
4677;DHT22;2352;48.180;11.478;2023-04-01T00:40:48;9.80;99.20
4677;DHT22;2352;48.180;11.478;2023-04-01T00:43:52;9.90;99.00
4677;DHT22;2352;48.180;11.478;2023-04-01T00:46:56;9.80;98.90
4677;DHT22;2352;48.180;11.478;2023-04-01T00:49:59;9.90;99.00
4677;DHT22;2352;48.180;11.478;2023-04-01T00:53:05;9.70;99.30
4677;DHT22;2352;48.180;11.478;2023-04-01T00:56:12;9.70;99.30
4677;DHT22;2352;48.180;11.478;2023-04-01T00:59:19;9.70;99.40
4677;DHT22;2352;48.180;11.478;2023-04-01T01:02:24;9.80;99.20
4677;DHT22;2352;48.180;11.478;2023-04-01T01:05:34;9.80;99.10
4677;DHT22;2352;48.180;11.478;2023-04-01T01:09:03;9.80;99.00
4677;DHT22;2352;48.180;11.478;2023-04-01T01:12:13;9.80;99.00
4677;DHT22;2352;48.180;11.478;2023-04-01T01:15:20;9.80;99.10
4677;DHT22;2352;48.180;11.478;2023-04-01T01:18:32;9.80;99.50
4677;DHT22;2352;48.180;11.478;2023-04-01T01:21:55;9.90;99.80
4677;DHT22;2352;48.180;11.478;2023-04-01T01:25:24;9.80;99.90
4677;DHT22;2352;48.180;11.478;2023-04-01T01:28:39;9.70;99.90
4677;DHT22;2352;48.180;11.478;2023-04-01T01:31:52;9.80;99.90
4677;DHT22;2352;48.180;11.478;2023-04-01T01:35:10;9.80;99.80
4677;DHT22;2352;48.180;11.478;2023-04-01T01:38:18;9.90;99.60
4677;DHT22;2352;48.180;11.478;2023-04-01T01:41:24;9.80;99.60
4677;DHT22;2352;48.180;11.478;2023-04-01T01:44:30;9.80;99.40
4677;DHT22;2352;48.180;11.478;2023-04-01T01:47:35;9.90;99.20
4677;DHT22;2352;48.180;11.478;2023-04-01T01:50:41;9.90;99.20
4677;DHT22;2352;48.180;11.478;2023-04-01T01:53:45;9.80;99.00
4677;DHT22;2352;48.180;11.478;2023-04-01T01:56:50;9.70;99.30
4677;DHT22;2352;48.180;11.478;2023-04-01T01:59:56;9.80;99.50
4677;DHT22;2352;48.180;11.478;2023-04-01T02:03:04;9.70;99.50
4677;DHT22;2352;48.180;11.478;2023-04-01T02:06:14;9.60;99.40
4677;DHT22;2352;48.180;11.478;2023-04-01T02:09:18;9.60;99.00
4677;DHT22;2352;48.180;11.478;2023-04-01T02:12:22;9.70;99.20
4677;DHT22;2352;48.180;11.478;2023-04-01T02:15:28;9.70;99.00
4677;DHT22;2352;48.180;11.478;2023-04-01T02:18:35;9.60;99.00
4677;DHT22;2352;48.180;11.478;2023-04-01T02:21:41;9.50;99.10
4677;DHT22;2352;48.180;11.478;2023-04-01T02:24:46;9.50;99.00
4677;DHT22;2352;48.180;11.478;2023-04-01T02:27:49;9.50;99.10
4677;DHT22;2352;48.180;11.478;2023-04-01T02:30:53;9.50;99.20
4677;DHT22;2352;48.180;11.478;2023-04-01T02:33:56;9.50;98.90
4677;DHT22;2352;48.180;11.478;2023-04-01T02:37:01;9.60;98.90
4677;DHT22;2352;48.180;11.478;2023-04-01T02:40:06;9.50;98.80
4677;DHT22;2352;48.180;11.478;2023-04-01T02:43:10;9.50;99.10
4677;DHT22;2352;48.180;11.478;2023-04-01T02:46:13;9.60;99.00
4677;DHT22;2352;48.180;11.478;2023-04-01T02:49:16;9.60;98.80
4677;DHT22;2352;48.180;11.478;2023-04-01T02:52:20;9.70;98.80
4677;DHT22;2352;48.180;11.478;2023-04-01T02:55:23;9.70;98.60
4677;DHT22;2352;48.180;11.478;2023-04-01T02:58:26;9.70;98.80
4677;DHT22;2352;48.180;11.478;2023-04-01T03:01:28;9.60;98.80
4677;DHT22;2352;48.180;11.478;2023-04-01T03:04:32;9.50;99.10
4677;DHT22;2352;48.180;11.478;2023-04-01T03:07:36;9.40;99.30
4677;DHT22;2352;48.180;11.478;2023-04-01T03:10:39;9.50;99.30
4677;DHT22;2352;48.180;11.478;2023-04-01T03:13:42;9.60;99.30
4677;DHT22;2352;48.180;11.478;2023-04-01T03:16:45;9.60;98.80
4677;DHT22;2352;48.180;11.478;2023-04-01T03:19:47;9.60;98.80
4677;DHT22;2352;48.180;11.478;2023-04-01T03:22:52;9.60;98.70
4677;DHT22;2352;48.180;11.478;2023-04-01T03:25:55;9.50;98.80
4677;DHT22;2352;48.180;11.478;2023-04-01T03:28:57;9.70;98.80
4677;DHT22;2352;48.180;11.478;2023-04-01T03:32:00;9.40;98.80
4677;DHT22;2352;48.180;11.478;2023-04-01T03:35:04;9.30;99.20
4677;DHT22;2352;48.180;11.478;2023-04-01T03:38:08;9.30;98.90
4677;DHT22;2352;48.180;11.478;2023-04-01T03:41:12;9.40;99.00
4677;DHT22;2352;48.180;11.478;2023-04-01T03:44:15;9.30;98.90
4677;DHT22;2352;48.180;11.478;2023-04-01T03:47:18;9.40;98.90
4677;DHT22;2352;48.180;11.478;2023-04-01T03:50:21;9.30;99.00
4677;DHT22;2352;48.180;11.478;2023-04-01T03:53:25;9.30;99.20
4677;DHT22;2352;48.180;11.478;2023-04-01T03:56:28;9.30;99.10
4677;DHT22;2352;48.180;11.478;2023-04-01T03:59:31;9.30;99.30
4677;DHT22;2352;48.180;11.478;2023-04-01T04:02:34;9.40;99.10
4677;DHT22;2352;48.180;11.478;2023-04-01T04:05:37;9.30;99.40
4677;DHT22;2352;48.180;11.478;2023-04-01T04:08:42;9.30;99.40
4677;DHT22;2352;48.180;11.478;2023-04-01T04:11:45;9.20;99.50
4677;DHT22;2352;48.180;11.478;2023-04-01T04:14:48;9.10;99.90
4677;DHT22;2352;48.180;11.478;2023-04-01T04:17:51;9.20;99.90
4677;DHT22;2352;48.180;11.478;2023-04-01T04:20:54;9.20;99.90
4677;DHT22;2352;48.180;11.478;2023-04-01T04:23:59;9.20;99.90
4677;DHT22;2352;48.180;11.478;2023-04-01T04:27:03;9.30;99.90
4677;DHT22;2352;48.180;11.478;2023-04-01T04:30:07;9.30;99.90
4677;DHT22;2352;48.180;11.478;2023-04-01T04:33:10;9.30;99.90
4677;DHT22;2352;48.180;11.478;2023-04-01T04:36:13;9.30;99.90
4677;DHT22;2352;48.180;11.478;2023-04-01T04:39:17;9.30;99.90
4677;DHT22;2352;48.180;11.478;2023-04-01T04:42:20;9.40;99.90
4677;DHT22;2352;48.180;11.478;2023-04-01T04:45:23;9.40;99.70
4677;DHT22;2352;48.180;11.478;2023-04-01T04:48:26;9.30;99.90
4677;DHT22;2352;48.180;11.478;2023-04-01T04:51:29;9.40;99.90
4677;DHT22;2352;48.180;11.478;2023-04-01T04:54:33;9.30;99.90
4677;DHT22;2352;48.180;11.478;2023-04-01T04:57:36;9.40;99.90
4677;DHT22;2352;48.180;11.478;2023-04-01T05:00:39;9.30;99.70
4677;DHT22;2352;48.180;11.478;2023-04-01T05:03:42;9.40;99.80
4677;DHT22;2352;48.180;11.478;2023-04-01T05:06:45;9.40;99.60
4677;DHT22;2352;48.180;11.478;2023-04-01T05:09:49;9.40;99.70
4677;DHT22;2352;48.180;11.478;2023-04-01T05:12:52;9.40;99.60
4677;DHT22;2352;48.180;11.478;2023-04-01T05:15:55;9.40;99.70
4677;DHT22;2352;48.180;11.478;2023-04-01T05:18:58;9.50;99.50
4677;DHT22;2352;48.180;11.478;2023-04-01T05:22:01;9.60;99.40
4677;DHT22;2352;48.180;11.478;2023-04-01T05:25:06;9.40;99.10
4677;DHT22;2352;48.180;11.478;2023-04-01T05:28:09;9.50;99.00
4677;DHT22;2352;48.180;11.478;2023-04-01T05:31:12;9.60;99.00
4677;DHT22;2352;48.180;11.478;2023-04-01T05:34:15;9.60;98.80
4677;DHT22;2352;48.180;11.478;2023-04-01T05:37:18;9.50;98.50
4677;DHT22;2352;48.180;11.478;2023-04-01T05:40:22;9.60;98.60
4677;DHT22;2352;48.180;11.478;2023-04-01T05:43:25;9.60;98.50
4677;DHT22;2352;48.180;11.478;2023-04-01T05:46:28;9.60;98.60
4677;DHT22;2352;48.180;11.478;2023-04-01T05:49:33;9.70;98.10
4677;DHT22;2352;48.180;11.478;2023-04-01T05:52:36;9.60;98.20
4677;DHT22;2352;48.180;11.478;2023-04-01T05:55:40;9.60;98.30
4677;DHT22;2352;48.180;11.478;2023-04-01T05:58:46;9.50;98.20
4677;DHT22;2352;48.180;11.478;2023-04-01T06:01:53;9.60;98.00
4677;DHT22;2352;48.180;11.478;2023-04-01T06:05:03;9.70;98.00
4677;DHT22;2352;48.180;11.478;2023-04-01T06:08:15;9.60;97.90
4677;DHT22;2352;48.180;11.478;2023-04-01T06:11:29;9.60;98.10
4677;DHT22;2352;48.180;11.478;2023-04-01T06:14:43;9.60;98.10
4677;DHT22;2352;48.180;11.478;2023-04-01T06:18:31;9.70;97.80
4677;DHT22;2352;48.180;11.478;2023-04-01T06:25:40;9.70;97.50
4677;DHT22;2352;48.180;11.478;2023-04-01T06:29:05;9.60;97.00
4677;DHT22;2352;48.180;11.478;2023-04-01T06:32:22;9.80;97.20
4677;DHT22;2352;48.180;11.478;2023-04-01T06:39:11;9.80;97.00
4677;DHT22;2352;48.180;11.478;2023-04-01T06:45:55;9.90;96.20
4677;DHT22;2352;48.180;11.478;2023-04-01T06:49:21;9.90;96.20
4677;DHT22;2352;48.180;11.478;2023-04-01T06:52:36;10.10;95.90
4677;DHT22;2352;48.180;11.478;2023-04-01T06:55:43;10.10;95.60
4677;DHT22;2352;48.180;11.478;2023-04-01T06:58:51;10.10;95.60
4677;DHT22;2352;48.180;11.478;2023-04-01T07:02:00;10.20;95.50
4677;DHT22;2352;48.180;11.478;2023-04-01T07:05:04;10.20;95.40
4677;DHT22;2352;48.180;11.478;2023-04-01T07:08:11;10.20;95.20
4677;DHT22;2352;48.180;11.478;2023-04-01T07:11:23;10.30;95.40
4677;DHT22;2352;48.180;11.478;2023-04-01T07:14:31;10.40;95.20
4677;DHT22;2352;48.180;11.478;2023-04-01T07:17:39;10.40;94.90
4677;DHT22;2352;48.180;11.478;2023-04-01T07:20:45;10.30;94.50
4677;DHT22;2352;48.180;11.478;2023-04-01T07:23:51;10.30;95.00
4677;DHT22;2352;48.180;11.478;2023-04-01T07:26:55;10.40;94.80
4677;DHT22;2352;48.180;11.478;2023-04-01T07:30:01;10.50;94.80
4677;DHT22;2352;48.180;11.478;2023-04-01T07:33:08;10.50;94.40
4677;DHT22;2352;48.180;11.478;2023-04-01T07:36:24;10.60;94.20
4677;DHT22;2352;48.180;11.478;2023-04-01T07:39:37;10.60;94.30
4677;DHT22;2352;48.180;11.478;2023-04-01T07:42:55;10.70;94.80
4677;DHT22;2352;48.180;11.478;2023-04-01T07:46:07;10.80;94.20
4677;DHT22;2352;48.180;11.478;2023-04-01T07:49:16;10.80;94.10
4677;DHT22;2352;48.180;11.478;2023-04-01T07:52:26;10.80;94.20
4677;DHT22;2352;48.180;11.478;2023-04-01T07:55:39;10.70;93.90
4677;DHT22;2352;48.180;11.478;2023-04-01T07:58:52;10.80;94.00
4677;DHT22;2352;48.180;11.478;2023-04-01T08:02:01;10.80;94.60
4677;DHT22;2352;48.180;11.478;2023-04-01T08:05:17;10.90;93.40
4677;DHT22;2352;48.180;11.478;2023-04-01T08:08:29;10.90;93.60
4677;DHT22;2352;48.180;11.478;2023-04-01T08:11:46;11.00;93.10
4677;DHT22;2352;48.180;11.478;2023-04-01T08:14:59;11.00;93.10
4677;DHT22;2352;48.180;11.478;2023-04-01T08:18:14;11.00;93.10
4677;DHT22;2352;48.180;11.478;2023-04-01T08:21:25;11.10;92.50
4677;DHT22;2352;48.180;11.478;2023-04-01T08:24:35;11.10;92.30
4677;DHT22;2352;48.180;11.478;2023-04-01T08:27:52;11.20;92.70
4677;DHT22;2352;48.180;11.478;2023-04-01T08:31:00;11.20;92.20
4677;DHT22;2352;48.180;11.478;2023-04-01T08:34:05;11.40;92.70
4677;DHT22;2352;48.180;11.478;2023-04-01T08:37:17;11.50;92.30
4677;DHT22;2352;48.180;11.478;2023-04-01T08:40:42;11.60;91.60
4677;DHT22;2352;48.180;11.478;2023-04-01T08:47:46;11.60;91.90
4677;DHT22;2352;48.180;11.478;2023-04-01T08:51:17;11.50;91.50
4677;DHT22;2352;48.180;11.478;2023-04-01T08:58:13;11.30;91.50
4677;DHT22;2352;48.180;11.478;2023-04-01T09:01:32;11.30;91.20
4677;DHT22;2352;48.180;11.478;2023-04-01T09:04:51;11.30;91.20
4677;DHT22;2352;48.180;11.478;2023-04-01T09:08:16;11.40;91.20
4677;DHT22;2352;48.180;11.478;2023-04-01T09:11:34;11.40;90.80
4677;DHT22;2352;48.180;11.478;2023-04-01T09:15:12;11.50;91.00
4677;DHT22;2352;48.180;11.478;2023-04-01T09:18:41;11.60;91.10
4677;DHT22;2352;48.180;11.478;2023-04-01T09:22:09;11.70;90.80
4677;DHT22;2352;48.180;11.478;2023-04-01T09:25:26;11.70;90.90
4677;DHT22;2352;48.180;11.478;2023-04-01T09:28:42;11.80;90.70
4677;DHT22;2352;48.180;11.478;2023-04-01T09:32:05;11.80;90.70
4677;DHT22;2352;48.180;11.478;2023-04-01T09:35:36;12.10;91.10
4677;DHT22;2352;48.180;11.478;2023-04-01T09:38:54;12.10;90.40
4677;DHT22;2352;48.180;11.478;2023-04-01T09:42:21;12.20;90.50
4677;DHT22;2352;48.180;11.478;2023-04-01T09:45:42;12.30;89.20
4677;DHT22;2352;48.180;11.478;2023-04-01T09:49:19;12.30;89.10
4677;DHT22;2352;48.180;11.478;2023-04-01T09:52:30;12.30;88.90
4677;DHT22;2352;48.180;11.478;2023-04-01T10:10:46;12.30;88.70
4677;DHT22;2352;48.180;11.478;2023-04-01T10:14:34;12.30;88.30
4677;DHT22;2352;48.180;11.478;2023-04-01T10:21:23;12.50;88.60
4677;DHT22;2352;48.180;11.478;2023-04-01T10:24:50;12.60;87.90
4677;DHT22;2352;48.180;11.478;2023-04-01T10:28:22;12.60;87.00
4677;DHT22;2352;48.180;11.478;2023-04-01T10:32:02;12.60;87.70
4677;DHT22;2352;48.180;11.478;2023-04-01T10:42:34;12.60;88.60
4677;DHT22;2352;48.180;11.478;2023-04-01T10:46:05;12.50;88.80
4677;DHT22;2352;48.180;11.478;2023-04-01T10:49:46;12.50;89.60
4677;DHT22;2352;48.180;11.478;2023-04-01T10:53:14;12.40;90.10
4677;DHT22;2352;48.180;11.478;2023-04-01T10:56:34;12.20;90.10
4677;DHT22;2352;48.180;11.478;2023-04-01T11:03:41;12.10;91.20
4677;DHT22;2352;48.180;11.478;2023-04-01T11:11:01;11.80;93.90
4677;DHT22;2352;48.180;11.478;2023-04-01T11:18:14;11.70;94.10
4677;DHT22;2352;48.180;11.478;2023-04-01T11:21:57;11.60;93.00
4677;DHT22;2352;48.180;11.478;2023-04-01T11:29:00;11.90;94.30
4677;DHT22;2352;48.180;11.478;2023-04-01T11:32:15;11.90;94.20
4677;DHT22;2352;48.180;11.478;2023-04-01T11:35:42;11.90;94.80
4677;DHT22;2352;48.180;11.478;2023-04-01T11:39:05;11.80;96.30
4677;DHT22;2352;48.180;11.478;2023-04-01T11:42:20;11.80;95.80
4677;DHT22;2352;48.180;11.478;2023-04-01T11:45:35;11.60;97.40
4677;DHT22;2352;48.180;11.478;2023-04-01T11:48:54;11.60;97.30
4677;DHT22;2352;48.180;11.478;2023-04-01T11:52:22;11.50;99.40
4677;DHT22;2352;48.180;11.478;2023-04-01T11:55:38;11.20;99.10
4677;DHT22;2352;48.180;11.478;2023-04-01T11:59:22;11.00;99.90
4677;DHT22;2352;48.180;11.478;2023-04-01T12:02:33;11.00;99.50
4677;DHT22;2352;48.180;11.478;2023-04-01T12:05:48;10.90;99.70
4677;DHT22;2352;48.180;11.478;2023-04-01T12:08:59;10.90;99.90
4677;DHT22;2352;48.180;11.478;2023-04-01T12:12:15;11.00;99.90
4677;DHT22;2352;48.180;11.478;2023-04-01T12:15:26;11.00;99.90
4677;DHT22;2352;48.180;11.478;2023-04-01T12:18:38;11.00;99.90
4677;DHT22;2352;48.180;11.478;2023-04-01T12:21:48;10.60;99.90
4677;DHT22;2352;48.180;11.478;2023-04-01T12:25:00;10.80;99.90
4677;DHT22;2352;48.180;11.478;2023-04-01T12:28:18;10.80;99.90
4677;DHT22;2352;48.180;11.478;2023-04-01T12:31:34;10.60;99.90
4677;DHT22;2352;48.180;11.478;2023-04-01T12:34:52;10.60;99.90
4677;DHT22;2352;48.180;11.478;2023-04-01T12:38:15;10.40;99.90
4677;DHT22;2352;48.180;11.478;2023-04-01T12:41:29;10.50;99.90
4677;DHT22;2352;48.180;11.478;2023-04-01T12:44:56;10.60;99.90
4677;DHT22;2352;48.180;11.478;2023-04-01T12:48:35;10.60;99.90
4677;DHT22;2352;48.180;11.478;2023-04-01T12:52:00;10.60;99.70
4677;DHT22;2352;48.180;11.478;2023-04-01T12:55:33;10.50;99.90
4677;DHT22;2352;48.180;11.478;2023-04-01T12:59:14;10.50;99.90
4677;DHT22;2352;48.180;11.478;2023-04-01T13:02:30;10.70;99.80
4677;DHT22;2352;48.180;11.478;2023-04-01T13:05:48;10.60;98.80
4677;DHT22;2352;48.180;11.478;2023-04-01T13:09:03;10.50;99.50
4677;DHT22;2352;48.180;11.478;2023-04-01T13:12:46;10.60;99.70
4677;DHT22;2352;48.180;11.478;2023-04-01T13:15:58;10.70;99.80
4677;DHT22;2352;48.180;11.478;2023-04-01T13:19:09;10.70;99.80
4677;DHT22;2352;48.180;11.478;2023-04-01T13:22:22;10.60;99.80
4677;DHT22;2352;48.180;11.478;2023-04-01T13:25:32;10.60;99.90
4677;DHT22;2352;48.180;11.478;2023-04-01T13:28:39;10.50;99.90
4677;DHT22;2352;48.180;11.478;2023-04-01T13:32:00;10.60;99.90
4677;DHT22;2352;48.180;11.478;2023-04-01T13:35:16;10.70;99.90
4677;DHT22;2352;48.180;11.478;2023-04-01T13:38:38;10.80;99.90
4677;DHT22;2352;48.180;11.478;2023-04-01T13:42:06;10.70;99.90
4677;DHT22;2352;48.180;11.478;2023-04-01T13:45:16;10.60;99.90
4677;DHT22;2352;48.180;11.478;2023-04-01T13:52:31;10.60;99.90
4677;DHT22;2352;48.180;11.478;2023-04-01T13:55:55;10.40;99.90
4677;DHT22;2352;48.180;11.478;2023-04-01T13:59:22;10.50;99.90
4677;DHT22;2352;48.180;11.478;2023-04-01T14:02:50;10.50;99.90
4677;DHT22;2352;48.180;11.478;2023-04-01T14:06:05;10.40;99.90
4677;DHT22;2352;48.180;11.478;2023-04-01T14:09:25;10.40;99.90
4677;DHT22;2352;48.180;11.478;2023-04-01T14:12:35;10.50;99.90
4677;DHT22;2352;48.180;11.478;2023-04-01T14:15:59;10.60;99.90
4677;DHT22;2352;48.180;11.478;2023-04-01T14:19:14;10.70;99.90
4677;DHT22;2352;48.180;11.478;2023-04-01T14:22:27;10.70;99.90
4677;DHT22;2352;48.180;11.478;2023-04-01T14:25:48;10.80;99.90
4677;DHT22;2352;48.180;11.478;2023-04-01T14:29:05;10.80;99.90
4677;DHT22;2352;48.180;11.478;2023-04-01T14:32:16;10.70;99.90
4677;DHT22;2352;48.180;11.478;2023-04-01T14:35:33;10.70;99.90
4677;DHT22;2352;48.180;11.478;2023-04-01T14:38:46;10.60;99.90
4677;DHT22;2352;48.180;11.478;2023-04-01T14:42:02;10.70;99.90
4677;DHT22;2352;48.180;11.478;2023-04-01T14:45:34;10.80;99.90
4677;DHT22;2352;48.180;11.478;2023-04-01T14:48:51;10.90;99.90
4677;DHT22;2352;48.180;11.478;2023-04-01T14:51:55;11.00;99.90
4677;DHT22;2352;48.180;11.478;2023-04-01T14:55:19;10.90;99.90
4677;DHT22;2352;48.180;11.478;2023-04-01T14:58:42;10.80;99.90
4677;DHT22;2352;48.180;11.478;2023-04-01T15:01:51;10.80;99.90
4677;DHT22;2352;48.180;11.478;2023-04-01T15:05:01;10.80;99.90
4677;DHT22;2352;48.180;11.478;2023-04-01T15:08:17;10.70;99.90
4677;DHT22;2352;48.180;11.478;2023-04-01T15:11:29;10.80;99.90
4677;DHT22;2352;48.180;11.478;2023-04-01T15:15:14;11.00;99.90
4677;DHT22;2352;48.180;11.478;2023-04-01T15:18:24;10.90;99.90
4677;DHT22;2352;48.180;11.478;2023-04-01T15:25:35;10.80;99.90
4677;DHT22;2352;48.180;11.478;2023-04-01T15:28:50;10.80;99.90
4677;DHT22;2352;48.180;11.478;2023-04-01T15:31:59;10.70;99.90
4677;DHT22;2352;48.180;11.478;2023-04-01T15:35:14;10.60;99.90
4677;DHT22;2352;48.180;11.478;2023-04-01T15:38:30;10.70;99.90
4677;DHT22;2352;48.180;11.478;2023-04-01T15:41:42;10.80;99.90
4677;DHT22;2352;48.180;11.478;2023-04-01T15:45:00;10.90;99.90
4677;DHT22;2352;48.180;11.478;2023-04-01T15:48:18;10.80;99.90
4677;DHT22;2352;48.180;11.478;2023-04-01T15:51:47;10.90;99.50
4677;DHT22;2352;48.180;11.478;2023-04-01T15:55:00;10.90;99.40
4677;DHT22;2352;48.180;11.478;2023-04-01T15:58:38;10.80;98.40
4677;DHT22;2352;48.180;11.478;2023-04-01T16:01:53;10.90;97.40
4677;DHT22;2352;48.180;11.478;2023-04-01T16:05:04;10.90;97.10
4677;DHT22;2352;48.180;11.478;2023-04-01T16:08:37;11.00;97.40
4677;DHT22;2352;48.180;11.478;2023-04-01T16:11:47;11.10;97.30
4677;DHT22;2352;48.180;11.478;2023-04-01T16:15:02;11.20;96.80
4677;DHT22;2352;48.180;11.478;2023-04-01T16:21:50;11.10;96.10
4677;DHT22;2352;48.180;11.478;2023-04-01T16:25:07;11.10;95.70
4677;DHT22;2352;48.180;11.478;2023-04-01T16:28:22;11.00;95.80
4677;DHT22;2352;48.180;11.478;2023-04-01T16:31:32;10.90;96.10
4677;DHT22;2352;48.180;11.478;2023-04-01T16:34:41;10.90;96.20
4677;DHT22;2352;48.180;11.478;2023-04-01T16:37:52;11.10;96.30
4677;DHT22;2352;48.180;11.478;2023-04-01T16:41:07;11.10;95.60
4677;DHT22;2352;48.180;11.478;2023-04-01T16:44:18;11.20;95.50
4677;DHT22;2352;48.180;11.478;2023-04-01T16:47:26;11.20;95.50
4677;DHT22;2352;48.180;11.478;2023-04-01T16:50:44;11.20;95.90
4677;DHT22;2352;48.180;11.478;2023-04-01T16:54:02;11.20;94.90
4677;DHT22;2352;48.180;11.478;2023-04-01T16:57:17;11.20;94.60
4677;DHT22;2352;48.180;11.478;2023-04-01T17:00:27;11.20;94.90
4677;DHT22;2352;48.180;11.478;2023-04-01T17:03:34;11.10;94.70
4677;DHT22;2352;48.180;11.478;2023-04-01T17:06:45;11.20;94.50
4677;DHT22;2352;48.180;11.478;2023-04-01T17:09:59;11.10;94.20
4677;DHT22;2352;48.180;11.478;2023-04-01T17:13:23;10.90;94.50
4677;DHT22;2352;48.180;11.478;2023-04-01T17:16:49;10.70;94.40
4677;DHT22;2352;48.180;11.478;2023-04-01T17:20:12;10.80;94.70
4677;DHT22;2352;48.180;11.478;2023-04-01T17:23:21;10.80;94.50
4677;DHT22;2352;48.180;11.478;2023-04-01T17:26:32;10.80;94.60
4677;DHT22;2352;48.180;11.478;2023-04-01T17:29:42;10.90;94.20
4677;DHT22;2352;48.180;11.478;2023-04-01T17:33:02;11.00;93.90
4677;DHT22;2352;48.180;11.478;2023-04-01T17:36:19;11.00;94.10
4677;DHT22;2352;48.180;11.478;2023-04-01T17:39:38;11.10;94.60
4677;DHT22;2352;48.180;11.478;2023-04-01T17:42:49;11.10;93.80
4677;DHT22;2352;48.180;11.478;2023-04-01T17:45:57;11.10;93.80
4677;DHT22;2352;48.180;11.478;2023-04-01T17:49:17;11.00;94.10
4677;DHT22;2352;48.180;11.478;2023-04-01T17:52:29;11.10;93.80
4677;DHT22;2352;48.180;11.478;2023-04-01T17:55:48;11.00;94.20
4677;DHT22;2352;48.180;11.478;2023-04-01T17:59:02;11.00;93.80
4677;DHT22;2352;48.180;11.478;2023-04-01T18:02:20;11.10;93.70
4677;DHT22;2352;48.180;11.478;2023-04-01T18:05:33;11.10;93.70
4677;DHT22;2352;48.180;11.478;2023-04-01T18:08:54;11.00;93.80
4677;DHT22;2352;48.180;11.478;2023-04-01T18:12:05;11.10;93.90
4677;DHT22;2352;48.180;11.478;2023-04-01T18:15:21;11.10;93.70
4677;DHT22;2352;48.180;11.478;2023-04-01T18:18:37;11.20;93.70
4677;DHT22;2352;48.180;11.478;2023-04-01T18:21:47;11.20;93.70
4677;DHT22;2352;48.180;11.478;2023-04-01T18:24:56;11.20;93.70
4677;DHT22;2352;48.180;11.478;2023-04-01T18:28:25;11.20;93.60
4677;DHT22;2352;48.180;11.478;2023-04-01T18:31:38;11.00;93.80
4677;DHT22;2352;48.180;11.478;2023-04-01T18:34:52;11.00;94.30
4677;DHT22;2352;48.180;11.478;2023-04-01T18:38:00;11.00;94.50
4677;DHT22;2352;48.180;11.478;2023-04-01T18:41:13;10.90;94.50
4677;DHT22;2352;48.180;11.478;2023-04-01T18:44:25;10.80;95.00
4677;DHT22;2352;48.180;11.478;2023-04-01T18:47:38;10.80;94.40
4677;DHT22;2352;48.180;11.478;2023-04-01T18:50:51;10.80;94.70
4677;DHT22;2352;48.180;11.478;2023-04-01T18:53:58;10.70;95.20
4677;DHT22;2352;48.180;11.478;2023-04-01T18:57:07;10.70;95.30
4677;DHT22;2352;48.180;11.478;2023-04-01T19:00:18;10.80;95.70
4677;DHT22;2352;48.180;11.478;2023-04-01T19:03:31;10.90;95.40
4677;DHT22;2352;48.180;11.478;2023-04-01T19:06:43;11.00;95.50
4677;DHT22;2352;48.180;11.478;2023-04-01T19:09:49;10.80;95.50
4677;DHT22;2352;48.180;11.478;2023-04-01T19:13:07;10.90;95.70
4677;DHT22;2352;48.180;11.478;2023-04-01T19:16:21;10.90;95.50
4677;DHT22;2352;48.180;11.478;2023-04-01T19:19:39;10.90;95.80
4677;DHT22;2352;48.180;11.478;2023-04-01T19:22:57;10.90;95.90
4677;DHT22;2352;48.180;11.478;2023-04-01T19:26:09;10.90;95.80
4677;DHT22;2352;48.180;11.478;2023-04-01T19:29:23;10.90;96.00
4677;DHT22;2352;48.180;11.478;2023-04-01T19:32:40;10.80;96.30
4677;DHT22;2352;48.180;11.478;2023-04-01T19:35:51;10.90;96.20
4677;DHT22;2352;48.180;11.478;2023-04-01T19:39:04;11.00;96.20
4677;DHT22;2352;48.180;11.478;2023-04-01T19:42:15;10.80;96.30
4677;DHT22;2352;48.180;11.478;2023-04-01T19:45:29;10.80;96.40
4677;DHT22;2352;48.180;11.478;2023-04-01T19:48:50;10.80;96.50
4677;DHT22;2352;48.180;11.478;2023-04-01T19:52:00;10.80;96.40
4677;DHT22;2352;48.180;11.478;2023-04-01T19:55:15;10.90;96.30
4677;DHT22;2352;48.180;11.478;2023-04-01T19:58:28;10.80;96.30
4677;DHT22;2352;48.180;11.478;2023-04-01T20:01:39;10.70;96.30
4677;DHT22;2352;48.180;11.478;2023-04-01T20:04:48;10.80;96.20
4677;DHT22;2352;48.180;11.478;2023-04-01T20:07:57;10.70;96.10
4677;DHT22;2352;48.180;11.478;2023-04-01T20:11:18;10.70;96.40
4677;DHT22;2352;48.180;11.478;2023-04-01T20:14:30;10.80;96.10
4677;DHT22;2352;48.180;11.478;2023-04-01T20:17:42;10.70;96.10
4677;DHT22;2352;48.180;11.478;2023-04-01T20:20:55;10.60;96.20
4677;DHT22;2352;48.180;11.478;2023-04-01T20:24:07;10.60;96.30
4677;DHT22;2352;48.180;11.478;2023-04-01T20:27:20;10.50;96.40
4677;DHT22;2352;48.180;11.478;2023-04-01T20:30:53;10.50;96.70
4677;DHT22;2352;48.180;11.478;2023-04-01T20:34:19;10.60;96.70
4677;DHT22;2352;48.180;11.478;2023-04-01T20:37:32;10.60;96.50
4677;DHT22;2352;48.180;11.478;2023-04-01T20:40:40;10.60;96.50
4677;DHT22;2352;48.180;11.478;2023-04-01T20:43:57;10.60;96.40
4677;DHT22;2352;48.180;11.478;2023-04-01T20:47:10;10.60;96.40
4677;DHT22;2352;48.180;11.478;2023-04-01T20:50:21;10.50;96.50
4677;DHT22;2352;48.180;11.478;2023-04-01T20:53:29;10.50;96.70
4677;DHT22;2352;48.180;11.478;2023-04-01T20:56:48;10.40;96.70
4677;DHT22;2352;48.180;11.478;2023-04-01T21:00:03;10.50;96.60
4677;DHT22;2352;48.180;11.478;2023-04-01T21:03:23;10.50;96.60
4677;DHT22;2352;48.180;11.478;2023-04-01T21:06:44;10.50;96.60
4677;DHT22;2352;48.180;11.478;2023-04-01T21:10:24;10.50;96.60
4677;DHT22;2352;48.180;11.478;2023-04-01T21:13:46;10.60;96.40
4677;DHT22;2352;48.180;11.478;2023-04-01T21:16:57;10.50;96.60
4677;DHT22;2352;48.180;11.478;2023-04-01T21:27:38;10.40;96.90
4677;DHT22;2352;48.180;11.478;2023-04-01T21:30:54;10.40;96.90
4677;DHT22;2352;48.180;11.478;2023-04-01T21:34:25;10.40;96.90
4677;DHT22;2352;48.180;11.478;2023-04-01T21:37:41;10.50;96.80
4677;DHT22;2352;48.180;11.478;2023-04-01T21:40:55;10.30;97.10
4677;DHT22;2352;48.180;11.478;2023-04-01T21:48:12;10.30;97.40
4677;DHT22;2352;48.180;11.478;2023-04-01T21:51:53;10.30;97.40
4677;DHT22;2352;48.180;11.478;2023-04-01T21:55:35;10.40;97.30
4677;DHT22;2352;48.180;11.478;2023-04-01T21:59:00;10.30;97.10
4677;DHT22;2352;48.180;11.478;2023-04-01T22:05:48;10.40;97.20
4677;DHT22;2352;48.180;11.478;2023-04-01T22:09:03;10.30;97.30
4677;DHT22;2352;48.180;11.478;2023-04-01T22:12:13;10.30;97.50
4677;DHT22;2352;48.180;11.478;2023-04-01T22:15:28;10.30;97.60